Предлагаем Вашему вниманию английскую версию страницы: AUTOTAF.ME 27553 - aviation weather forecast Nizhnij Novgorod (Strigino)

AUTOTAF 27553 - авиапрогноз Нижний Новгород (Стригино)

Сегодня рассвет 03:22 UTC, восход солнца 04:01 UTC,
местный полдень 08:48 UTC, заход солнца 13:35 UTC,
наступление темноты 14:14 UTC.

Краткий прогноз 27553 на 9 часов

AUTOTAF.ME 27553 260800Z 2609/2618 32007MPS 9999 BKN017     
  FM261500 VRB02MPS 9999 BKN011

Детальный прогноз 27553 на 24 часа

AUTOTAF.ME 27553 260800Z 2609/2709 32007MPS 9999 BKN017 TX05/2609Z TNM01/2618Z   
  FM261500 VRB02MPS 9999 BKN011    
  BECMG 2701/2703 BKN270  
  FM270600 18003MPS 9999 SCT012

Подробный табличный прогноз

Время (UTC) miniAUTOTAF на 3 ч WX FZLVL
M AGL
ICE TURB Т
(°С)
Тd
(°С)
f(%) QNH
(гПа)
WIND/T
06 33006MPS 9999 BKN009 420 FBL FL20/FL40 MOD SFC/FL20 3 -0 78 1020 ...
09 32007MPS 9999 BKN017 420 MOD FL20/FL30 MOD SFC/FL30 5 -1 68 1022 ...
12 34005MPS 9999 BKN017 420 MOD FL20/FL30 MOD SFC/FL30 4 -1 70 1024 ...
15 VRB02MPS 9999 BKN011 360 FBL FL20/FL30 MOD FL20/FL30 1 -2 81 1025 ...
18 VRB02MPS 9999 SCT011 SFC MOD FL20/FL30 -1 -3 85 1028 ...
21 VRB02MPS 9999 SCT011 SFC -1 -3 84 1029 ...
27.10.2020
00 VRB02MPS 9999 SCT012 SFC -1 -3 83 1030 ...
03 VRB02MPS 9999 BKN270 SFC -1 -3 83 1030 ...
06 18003MPS 9999 SCT012 180 1 -2 77 1031 ...
09 18003MPS 9999 SCT012 1050 MOD SFC/FL20 4 -1 71 1031 ...
12 18003MPS 9999 SCT012 2700 MOD FL190/FL200 4 0 75 1031 ...
15 18004MPS 9999 BKN190 2700 2 -0 86 1030 ...
18 19004MPS 9999 BKN164 2700 MOD FL170/FL180 2 -1 87 1030 ...
21 20004MPS 9999 OVC160 2850 MOD FL170/FL180 2 -1 85 1029 ...
28.10.2020
00 20004MPS 9999 BKN160 2850 MOD FL190/FL200 1 -1 85 1029 ...
03 19004MPS 9999 OVC187 2850 MOD FL190/FL200 1 -2 86 1028 ...


Широта 56.2°, долгота 43.8°, высота 78 м абс.
Средняя высота рельефа местности 125 м абс.
Прогнозы обновляются четыре раза в сутки: в 02, 08, 14, 20 ч всемирного времени.


Выбрать прогноз по другой модели Нижний Новгород (Стригино)
Онлайн-сводка гроз по Нижний Новгород (Стригино) (для РФ и ближнего зарубежья)
Карта фактических гроз в окрестностях Нижний Новгород (Стригино)
Динамические прогностические карты (ventusky.com)
Прогностическая карта высоты нижней границы облаков по Нижний Новгород (Стригино) (windy.com)
Выбрать другой город

Прогноз предназначен для личного научно-познавательного использования частными лицами
и не предназначен для принятия важных решений и выполнения реальных полётов воздушных судов

При копировании или ином использовании любых материалов данного сайта ссылка на © meteocenter.asia обязательна.

0.96/1.4